createdAt,value
2024-02-13T06:46:20.540Z,97721.63
2024-02-13T06:48:47.512Z,97737.09
2024-02-13T06:51:14.391Z,97724.38
2024-02-13T06:53:41.381Z,97724.47
2024-02-13T06:56:08.130Z,97727.75
2024-02-13T06:58:34.932Z,97762.53
2024-02-13T07:01:03.976Z,97738.16
2024-02-13T07:03:32.659Z,97741.91
2024-02-13T07:05:59.925Z,97762.75
2024-02-13T07:08:26.853Z,97764.19
2024-02-13T07:10:54.885Z,97747.09
2024-02-13T07:13:21.830Z,97770.75
2024-02-13T07:15:48.586Z,97752.84
2024-02-13T07:18:15.371Z,97762.03
2024-02-13T07:20:42.188Z,97770.34
2024-02-13T07:23:10.746Z,97753.53
2024-02-13T07:25:37.357Z,97783.41
2024-02-13T07:28:04.264Z,97772.94
2024-02-13T07:30:30.973Z,97767.91
2024-02-13T07:32:57.964Z,97760.66
2024-02-13T07:35:24.816Z,97774.09
2024-02-13T07:37:51.831Z,97785.66
2024-02-13T07:40:18.572Z,97766.78
2024-02-13T07:42:45.683Z,97777.69
2024-02-13T07:45:12.725Z,97792.41
2024-02-13T07:47:40.736Z,97786.06
2024-02-13T07:50:09.285Z,97799.75
2024-02-13T07:52:36.469Z,97795.59
2024-02-13T07:55:06.917Z,97803.31
2024-02-13T07:57:35.314Z,97787.59
2024-02-13T08:00:02.258Z,97815.81
2024-02-13T08:02:31.633Z,97808.22
2024-02-13T08:04:58.328Z,97826.03
2024-02-13T08:07:29.065Z,97809.19
2024-02-13T08:09:56.355Z,97804.63
2024-02-13T08:12:23.043Z,97820.03
2024-02-13T08:14:49.810Z,97808.69
2024-02-13T08:17:16.806Z,97798.78
2024-02-13T08:19:43.643Z,97825.00
2024-02-13T08:22:10.427Z,97792.13
2024-02-13T08:24:37.661Z,97821.69
2024-02-13T08:27:06.868Z,97817.53
2024-02-13T08:29:33.966Z,97820.72
2024-02-13T08:32:01.101Z,97823.78
2024-02-13T08:34:28.006Z,97818.19
2024-02-13T08:36:56.670Z,97808.63
2024-02-13T08:39:23.386Z,97830.59
2024-02-13T08:41:50.310Z,97825.41
2024-02-13T08:44:17.925Z,97836.19
2024-02-13T08:46:44.905Z,97844.88
2024-02-13T08:49:13.081Z,97822.28
2024-02-13T08:51:40.303Z,97833.63
2024-02-13T08:54:07.530Z,97826.63
2024-02-13T08:56:34.900Z,97829.09
2024-02-13T08:59:02.379Z,97833.88
2024-02-13T09:01:31.292Z,97854.28
2024-02-13T09:03:58.245Z,97846.91
2024-02-13T09:06:25.133Z,97835.34
2024-02-13T09:08:55.994Z,97832.84
2024-02-13T09:11:23.134Z,97851.09
2024-02-13T09:13:49.856Z,97852.63
2024-02-13T09:16:17.235Z,97841.72
2024-02-13T09:18:44.212Z,97843.25
2024-02-13T09:21:11.602Z,97863.84
2024-02-13T09:23:38.503Z,97839.84
2024-02-13T09:26:05.758Z,97867.63
2024-02-13T09:28:32.750Z,97846.56
2024-02-13T09:30:59.755Z,97858.88
2024-02-13T09:33:27.536Z,97847.50
2024-02-13T09:35:55.434Z,97861.13
2024-02-13T09:38:25.315Z,97871.44
2024-02-13T09:40:52.241Z,97853.00
2024-02-13T09:43:19.522Z,97875.19
2024-02-13T09:45:47.140Z,97863.63
2024-02-13T09:48:25.442Z,97847.25
2024-02-13T09:50:53.860Z,97843.16
2024-02-13T09:53:29.807Z,97876.06
2024-02-13T09:56:00.597Z,97865.91
2024-02-13T09:58:27.981Z,97863.38
2024-02-13T10:00:58.628Z,97878.38
2024-02-13T10:03:28.241Z,97878.88
2024-02-13T10:05:55.384Z,97856.00
2024-02-13T10:08:28.392Z,97874.75
2024-02-13T10:11:06.276Z,97880.88
2024-02-13T10:13:45.210Z,97884.09
2024-02-13T10:16:26.966Z,97873.31
2024-02-13T10:19:04.545Z,97859.63
2024-02-13T10:21:31.850Z,97866.47
2024-02-13T10:24:13.846Z,97871.56
2024-02-13T10:26:40.935Z,97887.72
2024-02-13T10:29:08.913Z,97875.38
2024-02-13T10:31:36.832Z,97864.97
2024-02-13T10:34:05.100Z,97868.75
2024-02-13T10:36:33.986Z,97866.34
2024-02-13T10:39:10.238Z,97880.09
2024-02-13T10:41:43.499Z,97876.94
2024-02-13T10:44:12.128Z,97872.53
2024-02-13T10:46:43.708Z,97849.25
2024-02-13T10:49:24.019Z,97880.03
2024-02-13T10:51:51.303Z,97850.91
2024-02-13T10:54:19.368Z,97871.25
2024-02-13T10:56:47.059Z,97867.13
2024-02-13T10:59:14.839Z,97870.03
2024-02-13T11:01:42.941Z,97846.63
2024-02-13T11:04:12.067Z,97867.59
2024-02-13T11:06:38.914Z,97867.41
2024-02-13T11:09:13.704Z,97862.28
2024-02-13T11:11:43.393Z,97875.13
2024-02-13T11:14:23.151Z,97870.06
2024-02-13T11:16:57.066Z,97856.34
2024-02-13T11:19:24.027Z,97855.19
2024-02-13T11:21:52.976Z,97858.47
2024-02-13T11:24:22.973Z,97852.94
2024-02-13T11:26:49.871Z,97845.19
2024-02-13T11:29:22.839Z,97842.88
2024-02-13T11:31:59.680Z,97850.72
2024-02-13T11:34:42.870Z,97853.63
2024-02-13T11:37:21.910Z,97839.91
2024-02-13T11:39:49.213Z,97856.06
2024-02-13T11:42:19.369Z,97843.03
2024-02-13T11:44:52.724Z,97841.59
2024-02-13T11:47:20.830Z,97823.09
2024-02-13T11:49:52.026Z,97821.56
2024-02-13T11:52:19.240Z,97836.66
2024-02-13T11:54:47.505Z,97822.72
2024-02-13T11:57:18.969Z,97840.13
2024-02-13T11:59:59.110Z,97837.81
2024-02-13T12:02:26.040Z,97823.59
2024-02-13T12:04:53.339Z,97820.69
2024-02-13T12:07:20.313Z,97818.81
2024-02-13T12:09:51.603Z,97830.47
2024-02-13T12:12:19.325Z,97833.81
2024-02-13T12:14:46.513Z,97832.75
2024-02-13T12:17:13.746Z,97819.41
2024-02-13T12:19:44.549Z,97815.44
2024-02-13T12:22:17.249Z,97829.19
2024-02-13T12:24:48.350Z,97823.81
2024-02-13T12:27:17.718Z,97815.63
2024-02-13T12:29:44.986Z,97827.28
2024-02-13T12:32:17.867Z,97810.16
2024-02-13T12:34:50.756Z,97830.03
2024-02-13T12:37:21.830Z,97830.59
2024-02-13T12:39:49.020Z,97803.09
2024-02-13T12:42:18.565Z,97800.19
2024-02-13T12:44:46.120Z,97816.78
2024-02-13T12:47:14.683Z,97798.78
2024-02-13T12:49:46.689Z,97814.91
2024-02-13T12:52:18.336Z,97806.31
2024-02-13T12:54:48.302Z,97820.66
2024-02-13T12:57:16.006Z,97809.94
2024-02-13T12:59:44.902Z,97816.09
2024-02-13T13:02:14.826Z,97816.50
2024-02-13T13:04:44.988Z,97817.34
2024-02-13T13:07:13.754Z,97798.22
2024-02-13T13:09:43.508Z,97818.03
2024-02-13T13:12:13.578Z,97796.75
2024-02-13T13:14:43.603Z,97814.47
2024-02-13T13:17:10.430Z,97796.03
2024-02-13T13:19:38.874Z,97809.78
2024-02-13T13:22:06.787Z,97789.28
2024-02-13T13:24:34.179Z,97806.28
2024-02-13T13:27:01.931Z,97799.22
2024-02-13T13:29:30.853Z,97790.63
2024-02-13T13:31:57.848Z,97801.53
2024-02-13T13:34:27.213Z,97791.28
2024-02-13T13:36:54.513Z,97802.03
2024-02-13T13:39:22.317Z,97810.06
2024-02-13T13:41:51.520Z,97805.72
2024-02-13T13:44:19.289Z,97813.00
2024-02-13T13:46:47.350Z,97815.78
2024-02-13T13:49:19.022Z,97796.31
2024-02-13T13:51:46.116Z,97804.72
2024-02-13T13:54:13.145Z,97812.78
2024-02-13T13:56:41.913Z,97808.53
2024-02-13T13:59:08.805Z,97801.38
2024-02-13T14:01:36.445Z,97817.31
2024-02-13T14:04:04.342Z,97814.34
2024-02-13T14:06:31.286Z,97800.09
2024-02-13T14:08:58.226Z,97823.84
2024-02-13T14:11:25.091Z,97823.44
2024-02-13T14:13:53.693Z,97817.16
2024-02-13T14:16:20.627Z,97797.91
2024-02-13T14:18:47.528Z,97798.09
2024-02-13T14:21:14.494Z,97810.19
2024-02-13T14:23:42.069Z,97817.56
2024-02-13T14:26:09.013Z,97802.91
2024-02-13T14:28:36.104Z,97807.56
2024-02-13T14:31:02.868Z,97805.38
2024-02-13T14:33:30.002Z,97819.88
2024-02-13T14:35:57.044Z,97809.13
2024-02-13T14:38:23.832Z,97830.78
2024-02-13T14:40:50.570Z,97823.47
2024-02-13T14:43:17.445Z,97813.09
2024-02-13T14:45:45.447Z,97830.00
2024-02-13T14:48:14.994Z,97810.84
2024-02-13T14:50:42.429Z,97808.81
2024-02-13T14:53:10.102Z,97811.19
2024-02-13T14:55:37.985Z,97817.03
2024-02-13T14:58:14.992Z,97812.88
2024-02-13T15:00:54.190Z,97813.91
2024-02-13T15:03:25.141Z,97828.13
2024-02-13T15:05:53.519Z,97837.19
2024-02-13T15:08:21.070Z,97827.19
2024-02-13T15:10:49.440Z,97814.72
2024-02-13T15:13:16.806Z,97837.16
2024-02-13T15:15:49.745Z,97833.28
2024-02-13T15:18:17.026Z,97818.06
2024-02-13T15:20:44.499Z,97833.00
2024-02-13T15:23:13.661Z,97828.47
2024-02-13T15:25:40.825Z,97844.38
2024-02-13T15:28:07.521Z,97823.00
2024-02-13T15:30:37.505Z,97849.59
2024-02-13T15:33:06.029Z,97823.50
2024-02-13T15:35:41.014Z,97841.91
2024-02-13T15:38:27.334Z,97837.25
2024-02-13T15:41:12.778Z,97846.16
2024-02-13T15:43:58.362Z,97834.50
2024-02-13T15:46:43.358Z,97844.44
2024-02-13T15:49:12.755Z,97844.22
2024-02-13T15:51:41.159Z,97853.28
2024-02-13T15:54:09.976Z,97851.09
2024-02-13T15:56:37.650Z,97852.44
2024-02-13T15:59:05.211Z,97830.94
2024-02-13T16:01:32.198Z,97847.19
2024-02-13T16:04:02.908Z,97830.88
2024-02-13T16:06:29.872Z,97844.91
2024-02-13T16:08:57.293Z,97833.66
2024-02-13T16:11:24.450Z,97855.09
2024-02-13T16:13:51.498Z,97832.47
2024-02-13T16:16:19.655Z,97829.97
2024-02-13T16:18:49.427Z,97847.91
2024-02-13T16:21:16.256Z,97851.84
2024-02-13T16:23:43.174Z,97861.06
2024-02-13T16:26:11.590Z,97869.84
2024-02-13T16:28:39.330Z,97867.41
2024-02-13T16:31:10.100Z,97860.81
2024-02-13T16:33:37.703Z,97880.00
2024-02-13T16:36:06.413Z,97865.44
2024-02-13T16:38:33.360Z,97887.81
2024-02-13T16:41:00.067Z,97883.72
2024-02-13T16:43:31.072Z,97895.25
2024-02-13T16:45:57.773Z,97873.41
2024-02-13T16:48:24.611Z,97891.84
2024-02-13T16:50:52.897Z,97888.75
2024-02-13T16:53:20.114Z,97885.50
2024-02-13T16:55:49.722Z,97892.34
2024-02-13T16:58:16.495Z,97891.94
2024-02-13T17:00:43.434Z,97887.41
2024-02-13T17:03:10.254Z,97889.53
2024-02-13T17:05:38.940Z,97898.91
2024-02-13T17:08:06.513Z,97901.19
2024-02-13T17:10:33.166Z,97892.75
2024-02-13T17:13:01.827Z,97909.44
2024-02-13T17:15:28.458Z,97907.84
2024-02-13T17:17:55.423Z,97904.72
2024-02-13T17:20:22.237Z,97912.34
2024-02-13T17:22:49.162Z,97922.56
2024-02-13T17:25:17.291Z,97920.16
2024-02-13T17:27:43.971Z,97915.34
2024-02-13T17:30:16.539Z,97933.44
2024-02-13T17:32:45.834Z,97938.78
2024-02-13T17:35:12.874Z,97949.22
2024-02-13T17:37:39.973Z,97927.38
2024-02-13T17:40:09.181Z,97938.56
2024-02-13T17:42:36.012Z,97919.31
2024-02-13T17:45:05.927Z,97914.91
2024-02-13T17:47:33.076Z,97916.13
2024-02-13T17:49:59.921Z,97928.75
2024-02-13T17:52:26.736Z,97924.00
2024-02-13T17:54:53.486Z,97932.81
2024-02-13T17:57:20.978Z,97938.59
2024-02-13T17:59:47.692Z,97937.22
2024-02-13T18:02:14.350Z,97936.81
2024-02-13T18:04:40.997Z,97922.59
2024-02-13T18:07:10.617Z,97922.06
2024-02-13T18:09:39.269Z,97941.16
2024-02-13T18:12:06.891Z,97927.28
2024-02-13T18:14:33.840Z,97932.72
2024-02-13T18:17:01.917Z,97923.41
2024-02-13T18:19:29.228Z,97919.91
2024-02-13T18:21:58.586Z,97930.56
2024-02-13T18:24:25.343Z,97941.34
2024-02-13T18:26:53.309Z,97938.88
2024-02-13T18:29:20.156Z,97944.66
2024-02-13T18:31:47.390Z,97939.34
2024-02-13T18:34:15.163Z,97928.13
2024-02-13T18:36:47.649Z,97936.19
2024-02-13T18:39:14.368Z,97951.66
2024-02-13T18:41:41.955Z,97931.59
2024-02-13T18:44:09.057Z,97943.69
2024-02-13T18:46:35.836Z,97924.59
2024-02-13T18:49:04.144Z,97938.81
2024-02-13T18:51:31.775Z,97949.03
2024-02-13T18:53:58.678Z,97933.31
2024-02-13T18:56:28.164Z,97941.00
2024-02-13T18:58:54.904Z,97934.06
2024-02-13T19:01:22.870Z,97954.47
2024-02-13T19:03:49.605Z,97934.97
2024-02-13T19:06:16.464Z,97948.63
2024-02-13T19:08:43.735Z,97934.00
2024-02-13T19:11:10.564Z,97932.81
2024-02-13T19:13:37.340Z,97942.72
2024-02-13T19:16:04.394Z,97946.91
2024-02-13T19:18:31.217Z,97941.53
2024-02-13T19:20:58.007Z,97956.16
2024-02-13T19:23:25.509Z,97964.91
2024-02-13T19:25:52.840Z,97957.34
2024-02-13T19:28:19.568Z,97959.03
2024-02-13T19:30:52.500Z,97962.59
2024-02-13T19:33:19.343Z,97948.94
2024-02-13T19:35:46.892Z,97944.34
2024-02-13T19:38:15.105Z,97949.75
2024-02-13T19:40:43.080Z,97954.09
2024-02-13T19:43:09.824Z,97952.78
2024-02-13T19:45:37.691Z,97981.44
2024-02-13T19:48:04.810Z,97974.00
2024-02-13T19:50:32.943Z,97967.03
2024-02-13T19:53:00.639Z,97986.00
2024-02-13T19:55:27.320Z,97974.34
2024-02-13T19:57:54.689Z,97974.50
2024-02-13T20:00:23.272Z,97985.59
2024-02-13T20:02:49.921Z,97993.97
2024-02-13T20:05:18.344Z,97982.19
2024-02-13T20:07:45.089Z,98001.50
2024-02-13T20:10:11.808Z,97993.78
2024-02-13T20:12:38.538Z,97991.28
2024-02-13T20:15:06.849Z,97972.38
2024-02-13T20:17:33.781Z,98000.88
2024-02-13T20:20:00.636Z,97983.69
2024-02-13T20:22:28.037Z,97982.09
2024-02-13T20:24:55.242Z,97994.94
2024-02-13T20:27:21.966Z,97992.91
2024-02-13T20:29:48.759Z,97980.75
2024-02-13T20:32:15.512Z,97983.84
2024-02-13T20:34:43.793Z,97975.34
2024-02-13T20:37:12.122Z,97993.66
2024-02-13T20:39:38.853Z,97999.75
2024-02-13T20:42:05.831Z,98005.84
2024-02-13T20:44:32.640Z,98009.06
2024-02-13T20:46:59.811Z,98010.66
2024-02-13T20:49:27.385Z,98002.28
2024-02-13T20:51:54.240Z,97980.84
2024-02-13T20:54:20.965Z,97989.66
2024-02-13T20:56:48.356Z,97993.66
2024-02-13T20:59:15.854Z,98014.84
2024-02-13T21:01:43.515Z,97989.97
2024-02-13T21:04:10.471Z,97985.06
2024-02-13T21:06:44.367Z,98011.84
2024-02-13T21:09:12.962Z,97997.53
2024-02-13T21:11:40.889Z,98015.75
2024-02-13T21:14:07.861Z,98010.66
2024-02-13T21:16:34.827Z,98007.25
2024-02-13T21:19:02.766Z,98002.06
2024-02-13T21:21:47.847Z,98000.34
2024-02-13T21:24:14.764Z,98003.75
2024-02-13T21:26:41.771Z,98019.25
2024-02-13T21:29:09.439Z,97999.16
2024-02-13T21:31:36.757Z,98000.00
2024-02-13T21:34:07.006Z,98015.72
2024-02-13T21:36:37.783Z,98015.72
2024-02-13T21:39:12.022Z,98003.50
2024-02-13T21:41:39.151Z,98024.59
2024-02-13T21:44:06.135Z,98007.22
2024-02-13T21:46:32.866Z,98010.31
2024-02-13T21:49:00.129Z,98031.91
2024-02-13T21:51:27.182Z,98022.72
2024-02-13T21:53:54.001Z,98026.41
2024-02-13T21:56:22.576Z,98009.16
2024-02-13T21:58:50.222Z,98002.34
2024-02-13T22:01:17.052Z,97997.44
2024-02-13T22:03:44.178Z,98006.75
2024-02-13T22:06:13.114Z,98019.16
2024-02-13T22:08:39.872Z,98017.53
2024-02-13T22:11:09.127Z,98016.72
2024-02-13T22:13:35.820Z,98028.94
2024-02-13T22:16:02.486Z,98032.31
2024-02-13T22:18:30.169Z,98034.81
2024-02-13T22:20:58.643Z,98028.66
2024-02-13T22:23:25.881Z,98018.72
2024-02-13T22:25:52.821Z,98024.34
2024-02-13T22:28:19.651Z,98023.81
2024-02-13T22:30:47.300Z,98037.31
2024-02-13T22:33:14.208Z,98037.09
2024-02-13T22:35:41.929Z,98020.88
2024-02-13T22:38:08.914Z,98023.88
2024-02-13T22:40:35.611Z,98027.38
